Time;durP1;ratioP1;P1;durP2;ratioP2;P2;SDS_P1;SDS_P2;PMS_P1;PMS_P2;Temp;Humidity;BMP_temperature;BMP_pressure;BME280_temperature;BME280_humidity;BME280_pressure;Samples;Min_cycle;Max_cycle;Signal;HPM_P1;HPM_P2
2021/01/04 10:53:44;;;;;;;27.13;17.13;;;;;;;2.05;99.26;98681.00;5168475;27;20534;-85
2021/01/04 10:56:34;;;;;;;27.30;18.33;;;;;;;2.61;100.00;98691.34;5191739;22;38771;-86
2021/01/04 10:59:12;;;;;;;22.67;16.73;;;;;;;3.06;100.00;98689.81;5090432;28;41716;-83
2021/01/04 11:01:42;;;;;;;28.07;17.53;;;;;;;3.38;98.09;98690.41;5071424;28;41914;-83
2021/01/04 11:04:11;;;;;;;23.27;15.73;;;;;;;3.60;95.07;98686.09;5089361;28;41800;-83
2021/01/04 11:06:41;;;;;;;23.30;15.43;;;;;;;3.67;92.67;98656.16;5207004;22;39980;-83
2021/01/04 11:09:16;;;;;;;23.93;16.67;;;;;;;3.95;90.25;98683.03;5145651;27;41218;-85
2021/01/04 11:11:46;;;;;;;22.73;15.57;;;;;;;4.03;88.89;98674.00;5136142;27;42754;-83
2021/01/04 11:14:15;;;;;;;20.83;15.03;;;;;;;4.18;88.22;98681.28;5133282;27;41871;-84
2021/01/04 11:16:46;;;;;;;20.67;14.97;;;;;;;4.16;87.13;98659.50;5110524;27;38713;-86
2021/01/04 11:19:25;;;;;;;20.43;15.03;;;;;;;4.28;86.26;98669.50;5211597;22;41660;-87
2021/01/04 11:21:52;;;;;;;22.00;16.00;;;;;;;4.19;85.56;98636.66;5082723;28;41922;-87
2021/01/04 11:24:21;;;;;;;22.00;15.73;;;;;;;4.31;84.71;98662.38;5078005;28;41879;-88
2021/01/04 11:26:48;;;;;;;22.23;15.63;;;;;;;4.28;83.83;98659.88;5069236;28;39106;-87
2021/01/04 11:29:38;;;;;;;19.73;15.27;;;;;;;4.40;83.44;98662.91;5166387;22;41272;31
2021/01/04 11:32:06;;;;;;;21.27;14.37;;;;;;;4.36;83.73;98656.06;5085819;28;41317;-90
2021/01/04 11:34:33;;;;;;;19.53;13.80;;;;;;;4.31;83.12;98635.31;5062115;28;41100;-87
2021/01/04 11:37:01;;;;;;;21.57;15.67;;;;;;;4.50;82.88;98651.97;5072330;27;39928;-87
2021/01/04 11:39:29;;;;;;;18.70;14.40;;;;;;;4.55;82.78;98647.41;5077231;28;40661;-86
2021/01/04 11:41:56;;;;;;;22.47;16.10;;;;;;;4.57;82.71;98640.34;5181335;22;41906;-87
2021/01/04 11:44:23;;;;;;;20.50;14.53;;;;;;;4.53;81.66;98627.41;5107286;27;41192;-88
2021/01/04 11:46:51;;;;;;;24.93;16.37;;;;;;;4.61;82.12;98631.41;5109818;27;39961;-87
2021/01/04 11:49:18;;;;;;;19.00;14.30;;;;;;;4.63;81.29;98623.47;5100227;27;41573;-87
2021/01/04 11:51:50;;;;;;;19.03;13.60;;;;;;;4.74;81.25;98636.13;5088027;27;42994;-87
2021/01/04 11:54:17;;;;;;;24.47;15.50;;;;;;;4.77;80.71;98636.00;5168720;22;41077;-87
2021/01/04 11:56:45;;;;;;;21.10;15.17;;;;;;;4.73;80.22;98634.41;5059798;28;40284;-85
2021/01/04 11:59:13;;;;;;;19.00;13.63;;;;;;;4.77;80.25;98630.75;5066986;28;40784;-84
2021/01/04 12:01:40;;;;;;;23.93;17.17;;;;;;;4.70;79.98;98636.25;5082727;28;42883;-86
2021/01/04 12:04:17;;;;;;;24.07;16.97;;;;;;;4.74;79.79;98636.97;5085697;22;41522;31
2021/01/04 12:06:46;;;;;;;19.13;14.53;;;;;;;4.74;79.96;98639.59;5085584;28;39798;-84
2021/01/04 12:09:13;;;;;;;19.80;13.93;;;;;;;4.72;80.15;98614.34;5063280;28;41082;-85
2021/01/04 12:11:41;;;;;;;19.90;14.70;;;;;;;4.78;79.95;98622.81;5064752;28;41839;-86
2021/01/04 12:14:11;;;;;;;21.83;14.63;;;;;;;4.49;80.00;98568.97;5063087;28;41118;-86
2021/01/04 12:16:38;;;;;;;21.23;15.57;;;;;;;4.65;78.82;98616.41;5145489;22;39256;-86
2021/01/04 12:19:06;;;;;;;18.83;14.33;;;;;;;4.69;78.63;98623.22;5063088;28;40812;-85
2021/01/04 12:21:34;;;;;;;19.30;14.27;;;;;;;4.66;79.08;98613.72;5069322;28;42881;-86
2021/01/04 12:24:01;;;;;;;19.10;13.17;;;;;;;4.76;79.31;98619.41;5070515;28;41387;-85
2021/01/04 12:26:29;;;;;;;21.10;14.03;;;;;;;4.68;78.73;98611.88;5035613;28;38984;-86
2021/01/04 12:28:56;;;;;;;18.30;13.33;;;;;;;4.68;78.89;98604.00;5139954;22;41250;-86
2021/01/04 12:31:24;;;;;;;20.33;14.13;;;;;;;4.61;78.38;98589.44;5061863;28;42717;-85
2021/01/04 12:33:51;;;;;;;19.77;14.70;;;;;;;4.76;78.29;98613.31;5070526;28;41894;-87
2021/01/04 12:36:20;;;;;;;20.63;13.60;;;;;;;4.82;77.92;98623.56;5054028;28;39548;-84
2021/01/04 12:38:48;;;;;;;19.20;14.33;;;;;;;4.60;78.35;98587.72;5054129;28;42054;-85
2021/01/04 12:41:15;;;;;;;19.23;13.93;;;;;;;4.80;78.41;98604.41;5140600;22;43394;-87
2021/01/04 12:43:43;;;;;;;19.00;13.77;;;;;;;4.75;78.40;98596.72;5053346;28;41929;-83
2021/01/04 12:46:12;;;;;;;18.03;13.47;;;;;;;4.87;78.13;98611.94;5069610;28;39885;-85
2021/01/04 12:48:41;;;;;;;19.97;14.10;;;;;;;4.85;77.79;98607.66;5070123;28;41478;-84
2021/01/04 12:51:08;;;;;;;22.10;14.43;;;;;;;4.92;78.10;98604.72;5145589;22;41599;-85
2021/01/04 12:53:35;;;;;;;22.57;14.93;;;;;;;4.89;78.01;98583.84;5094048;28;41394;-84
2021/01/04 12:56:04;;;;;;;19.33;14.53;;;;;;;4.99;77.86;98586.91;5110233;28;40687;-84
2021/01/04 12:58:32;;;;;;;20.73;13.83;;;;;;;4.93;77.70;98574.94;5094069;28;41442;-84
2021/01/04 13:00:59;;;;;;;21.33;13.77;;;;;;;5.03;77.83;98597.22;5087974;28;43056;-84
2021/01/04 13:03:26;;;;;;;19.97;13.43;;;;;;;4.98;77.74;98578.19;5164153;22;42208;-83
2021/01/04 13:05:54;;;;;;;19.73;13.87;;;;;;;5.04;76.71;98592.84;5054217;28;39446;-83
2021/01/04 13:08:22;;;;;;;20.20;14.07;;;;;;;5.02;77.29;98597.28;5053451;28;41660;-84
2021/01/04 13:10:49;;;;;;;19.53;14.27;;;;;;;4.90;76.90;98585.56;5070238;28;43420;-84
2021/01/04 13:13:16;;;;;;;18.87;13.77;;;;;;;5.02;77.00;98600.78;5054368;28;41254;-85
2021/01/04 13:15:43;;;;;;;17.10;12.27;;;;;;;5.07;77.19;98587.41;5151135;22;39852;-85
2021/01/04 13:18:10;;;;;;;19.10;13.53;;;;;;;5.09;77.22;98579.47;5069919;28;41462;-85
2021/01/04 13:20:38;;;;;;;19.50;14.70;;;;;;;5.13;76.31;98586.31;5052955;28;42120;-84
2021/01/04 13:23:06;;;;;;;20.40;13.97;;;;;;;5.09;75.80;98593.47;5086278;28;41757;-84
2021/01/04 13:28:14;;;;;;;20.20;13.40;;;;;;;5.02;76.09;98587.66;5090197;28;20707;-85
2021/01/04 13:30:41;;;;;;;16.53;12.27;;;;;;;5.05;76.06;98589.28;5072832;28;41829;-85
2021/01/04 13:33:08;;;;;;;20.40;13.80;;;;;;;5.03;75.47;98593.75;5072961;28;41435;-85
2021/01/04 13:35:36;;;;;;;19.97;13.50;;;;;;;4.95;75.69;98585.34;5089132;28;39634;-85
2021/01/04 13:38:05;;;;;;;20.40;13.70;;;;;;;4.98;76.21;98578.19;5179425;22;42174;-85
2021/01/04 13:40:33;;;;;;;18.23;12.97;;;;;;;5.06;75.72;98591.00;5072712;28;41762;-85
2021/01/04 13:43:00;;;;;;;19.67;13.80;;;;;;;4.96;76.16;98581.81;5073330;28;42492;-85
2021/01/04 13:45:27;;;;;;;19.40;14.10;;;;;;;5.04;75.12;98614.69;5105922;28;40747;-85
2021/01/04 13:47:54;;;;;;;17.47;13.27;;;;;;;4.84;74.83;98585.81;5073211;28;40711;-85
2021/01/04 13:50:21;;;;;;;19.50;13.47;;;;;;;5.00;75.46;98617.50;5182054;22;42888;-84
2021/01/04 13:52:48;;;;;;;17.00;12.30;;;;;;;4.88;75.80;98583.91;5081673;28;41070;-84
2021/01/04 13:55:16;;;;;;;17.27;12.70;;;;;;;4.97;75.77;98592.22;5080451;28;39778;-85
2021/01/04 13:57:44;;;;;;;17.30;12.67;;;;;;;4.99;75.74;98606.13;5080597;28;42217;-87
2021/01/04 14:00:12;;;;;;;17.03;12.40;;;;;;;4.83;75.72;98588.50;5054147;28;41992;-85
2021/01/04 14:02:40;;;;;;;16.00;12.53;;;;;;;4.99;76.05;98610.53;5152512;22;41396;-85
2021/01/04 14:05:07;;;;;;;18.30;13.13;;;;;;;4.94;75.21;98607.28;5070419;28;40286;-84
